sensor_id;sensor_type;location;lat;lon;timestamp;noise_LAeq;noise_LA_min;noise_LA_max;noise_LA01;noise_LA95
69620;Laerm;57654;51.434;5.984;2023-03-01T00:00:07;33.70;31.26;38.12;;
69620;Laerm;57654;51.434;5.984;2023-03-01T00:00:18;39.35;32.35;60.09;;
69620;Laerm;57654;51.434;5.984;2023-03-01T00:00:28;42.35;36.48;48.05;;
69620;Laerm;57654;51.434;5.984;2023-03-01T00:00:38;48.39;45.31;50.46;;
69620;Laerm;57654;51.434;5.984;2023-03-01T00:00:48;47.77;45.45;49.61;;
69620;Laerm;57654;51.434;5.984;2023-03-01T00:01:05;48.18;43.98;50.62;;
69620;Laerm;57654;51.434;5.984;2023-03-01T00:01:17;38.17;30.86;44.74;;
69620;Laerm;57654;51.434;5.984;2023-03-01T00:01:29;31.92;29.64;35.84;;
69620;Laerm;57654;51.434;5.984;2023-03-01T00:01:39;32.04;29.70;39.52;;
69620;Laerm;57654;51.434;5.984;2023-03-01T00:01:50;31.91;29.97;35.90;;
69620;Laerm;57654;51.434;5.984;2023-03-01T00:02:00;31.90;29.90;36.53;;
69620;Laerm;57654;51.434;5.984;2023-03-01T00:02:11;31.79;29.84;36.43;;
69620;Laerm;57654;51.434;5.984;2023-03-01T00:02:21;31.79;29.79;35.68;;
69620;Laerm;57654;51.434;5.984;2023-03-01T00:02:31;31.62;29.30;36.17;;
69620;Laerm;57654;51.434;5.984;2023-03-01T00:02:42;31.73;29.43;36.24;;
69620;Laerm;57654;51.434;5.984;2023-03-01T00:02:52;31.85;29.63;37.32;;
69620;Laerm;57654;51.434;5.984;2023-03-01T00:03:02;31.83;29.85;36.82;;
69620;Laerm;57654;51.434;5.984;2023-03-01T00:03:13;31.75;29.65;36.71;;
69620;Laerm;57654;51.434;5.984;2023-03-01T00:03:23;31.64;29.47;36.97;;
69620;Laerm;57654;51.434;5.984;2023-03-01T00:03:34;31.66;29.67;36.48;;
69620;Laerm;57654;51.434;5.984;2023-03-01T00:03:44;31.58;29.06;34.87;;
69620;Laerm;57654;51.434;5.984;2023-03-01T00:03:55;31.67;29.36;35.61;;
69620;Laerm;57654;51.434;5.984;2023-03-01T00:04:05;31.59;29.49;35.80;;
69620;Laerm;57654;51.434;5.984;2023-03-01T00:04:16;31.61;29.71;36.31;;
69620;Laerm;57654;51.434;5.984;2023-03-01T00:04:26;31.81;29.65;36.87;;
69620;Laerm;57654;51.434;5.984;2023-03-01T00:04:37;31.66;29.36;35.88;;
69620;Laerm;57654;51.434;5.984;2023-03-01T00:04:47;31.53;29.35;37.01;;
69620;Laerm;57654;51.434;5.984;2023-03-01T00:04:58;31.52;29.69;35.70;;
69620;Laerm;57654;51.434;5.984;2023-03-01T00:05:08;31.72;29.69;38.03;;
69620;Laerm;57654;51.434;5.984;2023-03-01T00:05:18;31.57;29.55;36.02;;
69620;Laerm;57654;51.434;5.984;2023-03-01T00:05:28;31.83;29.81;38.31;;
69620;Laerm;57654;51.434;5.984;2023-03-01T00:05:45;31.83;29.77;36.02;;
69620;Laerm;57654;51.434;5.984;2023-03-01T00:05:56;31.91;29.56;38.71;;
69620;Laerm;57654;51.434;5.984;2023-03-01T00:06:06;31.74;29.62;35.95;;
69620;Laerm;57654;51.434;5.984;2023-03-01T00:06:17;31.89;29.88;35.90;;
69620;Laerm;57654;51.434;5.984;2023-03-01T00:06:27;32.22;29.98;36.96;;
69620;Laerm;57654;51.434;5.984;2023-03-01T00:06:38;31.90;30.06;35.97;;
69620;Laerm;57654;51.434;5.984;2023-03-01T00:06:48;32.33;29.98;37.78;;
69620;Laerm;57654;51.434;5.984;2023-03-01T00:06:58;31.72;29.87;37.15;;
69620;Laerm;57654;51.434;5.984;2023-03-01T00:07:08;31.89;29.71;37.48;;
69620;Laerm;57654;51.434;5.984;2023-03-01T00:07:19;32.05;29.96;39.35;;
69620;Laerm;57654;51.434;5.984;2023-03-01T00:07:29;31.83;29.97;36.12;;
69620;Laerm;57654;51.434;5.984;2023-03-01T00:07:39;31.93;29.71;38.16;;
69620;Laerm;57654;51.434;5.984;2023-03-01T00:07:52;31.90;29.67;35.38;;
69620;Laerm;57654;51.434;5.984;2023-03-01T00:08:02;31.70;29.15;35.99;;
69620;Laerm;57654;51.434;5.984;2023-03-01T00:08:12;31.61;29.71;36.22;;
69620;Laerm;57654;51.434;5.984;2023-03-01T00:08:24;31.63;29.73;35.10;;
69620;Laerm;57654;51.434;5.984;2023-03-01T00:08:34;31.58;29.71;35.17;;
69620;Laerm;57654;51.434;5.984;2023-03-01T00:08:45;31.84;29.79;37.22;;
69620;Laerm;57654;51.434;5.984;2023-03-01T00:08:55;31.70;29.47;35.09;;
69620;Laerm;57654;51.434;5.984;2023-03-01T00:09:05;31.65;29.44;35.30;;
69620;Laerm;57654;51.434;5.984;2023-03-01T00:09:16;31.74;29.64;35.60;;
69620;Laerm;57654;51.434;5.984;2023-03-01T00:09:26;31.68;29.74;36.55;;
69620;Laerm;57654;51.434;5.984;2023-03-01T00:09:36;31.71;29.28;35.32;;
69620;Laerm;57654;51.434;5.984;2023-03-01T00:09:47;31.50;29.57;37.20;;
69620;Laerm;57654;51.434;5.984;2023-03-01T00:09:57;31.68;29.83;34.76;;
69620;Laerm;57654;51.434;5.984;2023-03-01T00:10:08;31.96;29.64;39.52;;
69620;Laerm;57654;51.434;5.984;2023-03-01T00:10:18;31.62;29.70;35.27;;
69620;Laerm;57654;51.434;5.984;2023-03-01T00:10:28;31.87;29.47;36.70;;
69620;Laerm;57654;51.434;5.984;2023-03-01T00:10:38;31.61;29.63;36.57;;
69620;Laerm;57654;51.434;5.984;2023-03-01T00:10:49;31.49;29.36;34.85;;
69620;Laerm;57654;51.434;5.984;2023-03-01T00:11:04;31.63;29.06;36.40;;
69620;Laerm;57654;51.434;5.984;2023-03-01T00:11:16;31.75;29.39;36.35;;
69620;Laerm;57654;51.434;5.984;2023-03-01T00:11:28;31.62;29.22;36.52;;
69620;Laerm;57654;51.434;5.984;2023-03-01T00:11:38;31.75;29.66;39.23;;
69620;Laerm;57654;51.434;5.984;2023-03-01T00:11:49;31.76;29.76;36.07;;
69620;Laerm;57654;51.434;5.984;2023-03-01T00:11:59;31.86;29.41;39.69;;
69620;Laerm;57654;51.434;5.984;2023-03-01T00:12:09;31.78;29.85;36.73;;
69620;Laerm;57654;51.434;5.984;2023-03-01T00:12:19;31.76;29.66;36.39;;
69620;Laerm;57654;51.434;5.984;2023-03-01T00:12:31;31.96;29.51;37.55;;
69620;Laerm;57654;51.434;5.984;2023-03-01T00:12:41;31.59;29.63;36.36;;
69620;Laerm;57654;51.434;5.984;2023-03-01T00:12:51;31.91;29.84;40.48;;
69620;Laerm;57654;51.434;5.984;2023-03-01T00:13:01;31.72;29.22;37.25;;
69620;Laerm;57654;51.434;5.984;2023-03-01T00:13:12;31.87;29.55;38.83;;
69620;Laerm;57654;51.434;5.984;2023-03-01T00:13:22;31.65;29.36;35.71;;
69620;Laerm;57654;51.434;5.984;2023-03-01T00:13:33;31.77;29.25;35.60;;
69620;Laerm;57654;51.434;5.984;2023-03-01T00:13:44;31.70;29.20;35.21;;
69620;Laerm;57654;51.434;5.984;2023-03-01T00:13:55;32.14;29.71;36.38;;
69620;Laerm;57654;51.434;5.984;2023-03-01T00:14:06;31.76;29.62;38.42;;
69620;Laerm;57654;51.434;5.984;2023-03-01T00:14:16;31.73;29.56;35.64;;
69620;Laerm;57654;51.434;5.984;2023-03-01T00:14:27;31.83;29.54;36.99;;
69620;Laerm;57654;51.434;5.984;2023-03-01T00:14:37;31.61;29.52;36.37;;
69620;Laerm;57654;51.434;5.984;2023-03-01T00:14:47;32.01;29.19;39.28;;
69620;Laerm;57654;51.434;5.984;2023-03-01T00:14:58;31.56;29.66;35.94;;
69620;Laerm;57654;51.434;5.984;2023-03-01T00:15:08;31.71;29.65;35.54;;
69620;Laerm;57654;51.434;5.984;2023-03-01T00:15:18;31.59;29.46;35.19;;
69620;Laerm;57654;51.434;5.984;2023-03-01T00:15:28;31.55;28.96;35.31;;
69620;Laerm;57654;51.434;5.984;2023-03-01T00:15:39;31.67;29.76;35.46;;
69620;Laerm;57654;51.434;5.984;2023-03-01T00:15:50;31.69;29.55;36.68;;
69620;Laerm;57654;51.434;5.984;2023-03-01T00:16:07;31.57;29.47;35.38;;
69620;Laerm;57654;51.434;5.984;2023-03-01T00:16:28;31.84;29.80;38.45;;
69620;Laerm;57654;51.434;5.984;2023-03-01T00:16:39;31.62;29.51;36.97;;
69620;Laerm;57654;51.434;5.984;2023-03-01T00:16:49;31.73;29.70;35.94;;
69620;Laerm;57654;51.434;5.984;2023-03-01T00:17:00;31.52;29.30;35.33;;
69620;Laerm;57654;51.434;5.984;2023-03-01T00:17:10;31.54;29.26;36.53;;
69620;Laerm;57654;51.434;5.984;2023-03-01T00:17:20;31.66;29.31;36.87;;
69620;Laerm;57654;51.434;5.984;2023-03-01T00:17:31;31.70;29.67;35.63;;
69620;Laerm;57654;51.434;5.984;2023-03-01T00:17:41;31.71;29.57;36.09;;
69620;Laerm;57654;51.434;5.984;2023-03-01T00:17:51;31.88;29.45;37.70;;
69620;Laerm;57654;51.434;5.984;2023-03-01T00:18:01;31.88;29.78;38.28;;
69620;Laerm;57654;51.434;5.984;2023-03-01T00:18:12;31.83;29.38;37.93;;
69620;Laerm;57654;51.434;5.984;2023-03-01T00:18:22;31.96;29.93;37.50;;
69620;Laerm;57654;51.434;5.984;2023-03-01T00:18:32;31.83;29.66;36.45;;
69620;Laerm;57654;51.434;5.984;2023-03-01T00:18:43;31.93;29.08;40.47;;
69620;Laerm;57654;51.434;5.984;2023-03-01T00:18:54;31.76;29.90;36.11;;
69620;Laerm;57654;51.434;5.984;2023-03-01T00:19:04;31.82;29.46;37.76;;
69620;Laerm;57654;51.434;5.984;2023-03-01T00:19:18;31.87;29.56;37.52;;
69620;Laerm;57654;51.434;5.984;2023-03-01T00:19:29;31.99;29.58;37.58;;
69620;Laerm;57654;51.434;5.984;2023-03-01T00:19:39;31.87;29.59;35.80;;
69620;Laerm;57654;51.434;5.984;2023-03-01T00:19:49;31.86;29.30;39.96;;
69620;Laerm;57654;51.434;5.984;2023-03-01T00:20:00;31.74;29.62;36.16;;
69620;Laerm;57654;51.434;5.984;2023-03-01T00:20:10;31.83;29.60;36.64;;
69620;Laerm;57654;51.434;5.984;2023-03-01T00:20:20;32.15;29.64;36.51;;
69620;Laerm;57654;51.434;5.984;2023-03-01T00:20:31;31.94;29.33;35.94;;
69620;Laerm;57654;51.434;5.984;2023-03-01T00:20:41;32.36;29.75;38.20;;
69620;Laerm;57654;51.434;5.984;2023-03-01T00:20:52;32.36;30.04;36.51;;
69620;Laerm;57654;51.434;5.984;2023-03-01T00:21:02;32.44;29.83;39.71;;
69620;Laerm;57654;51.434;5.984;2023-03-01T00:21:13;32.22;29.57;35.77;;
69620;Laerm;57654;51.434;5.984;2023-03-01T00:21:24;31.97;29.66;39.33;;
69620;Laerm;57654;51.434;5.984;2023-03-01T00:21:34;32.19;29.60;37.71;;
69620;Laerm;57654;51.434;5.984;2023-03-01T00:21:45;32.09;29.76;35.32;;
69620;Laerm;57654;51.434;5.984;2023-03-01T00:21:55;32.02;29.88;36.56;;
69620;Laerm;57654;51.434;5.984;2023-03-01T00:22:06;32.36;30.06;36.20;;
69620;Laerm;57654;51.434;5.984;2023-03-01T00:22:16;32.42;29.60;36.40;;
69620;Laerm;57654;51.434;5.984;2023-03-01T00:22:26;32.39;30.05;36.06;;
69620;Laerm;57654;51.434;5.984;2023-03-01T00:22:38;32.54;29.49;36.82;;
69620;Laerm;57654;51.434;5.984;2023-03-01T00:22:48;32.18;29.74;38.53;;
69620;Laerm;57654;51.434;5.984;2023-03-01T00:22:58;31.78;29.53;38.84;;
69620;Laerm;57654;51.434;5.984;2023-03-01T00:23:08;31.91;29.54;35.27;;
69620;Laerm;57654;51.434;5.984;2023-03-01T00:23:19;31.70;29.56;35.82;;
69620;Laerm;57654;51.434;5.984;2023-03-01T00:23:29;31.68;29.54;36.22;;
69620;Laerm;57654;51.434;5.984;2023-03-01T00:23:39;31.85;29.53;35.22;;
69620;Laerm;57654;51.434;5.984;2023-03-01T00:23:50;31.79;29.09;36.06;;
69620;Laerm;57654;51.434;5.984;2023-03-01T00:24:00;31.38;29.02;36.29;;
69620;Laerm;57654;51.434;5.984;2023-03-01T00:24:11;31.36;29.50;35.39;;
69620;Laerm;57654;51.434;5.984;2023-03-01T00:24:21;31.23;28.91;36.14;;
69620;Laerm;57654;51.434;5.984;2023-03-01T00:24:32;31.29;29.31;36.29;;
69620;Laerm;57654;51.434;5.984;2023-03-01T00:24:42;31.62;29.33;37.68;;
69620;Laerm;57654;51.434;5.984;2023-03-01T00:24:52;31.31;29.26;35.94;;
69620;Laerm;57654;51.434;5.984;2023-03-01T00:25:03;31.32;28.95;37.21;;
69620;Laerm;57654;51.434;5.984;2023-03-01T00:25:13;31.52;29.43;36.61;;
69620;Laerm;57654;51.434;5.984;2023-03-01T00:25:23;31.58;29.44;36.68;;
69620;Laerm;57654;51.434;5.984;2023-03-01T00:25:33;31.62;29.01;38.24;;
69620;Laerm;57654;51.434;5.984;2023-03-01T00:25:51;31.52;29.54;39.87;;
69620;Laerm;57654;51.434;5.984;2023-03-01T00:26:01;31.32;29.48;34.44;;
69620;Laerm;57654;51.434;5.984;2023-03-01T00:26:12;31.45;29.12;34.75;;
69620;Laerm;57654;51.434;5.984;2023-03-01T00:26:23;31.53;29.04;35.90;;
69620;Laerm;57654;51.434;5.984;2023-03-01T00:26:34;31.32;29.47;34.82;;
69620;Laerm;57654;51.434;5.984;2023-03-01T00:26:44;31.48;28.72;36.93;;
69620;Laerm;57654;51.434;5.984;2023-03-01T00:26:55;31.67;29.48;34.69;;
69620;Laerm;57654;51.434;5.984;2023-03-01T00:27:05;31.40;29.13;36.62;;
69620;Laerm;57654;51.434;5.984;2023-03-01T00:27:16;31.63;29.30;38.03;;
69620;Laerm;57654;51.434;5.984;2023-03-01T00:27:26;31.48;29.15;36.20;;
69620;Laerm;57654;51.434;5.984;2023-03-01T00:27:36;31.49;29.02;36.30;;
69620;Laerm;57654;51.434;5.984;2023-03-01T00:27:47;31.83;29.30;37.32;;
69620;Laerm;57654;51.434;5.984;2023-03-01T00:27:58;31.34;29.15;34.13;;
69620;Laerm;57654;51.434;5.984;2023-03-01T00:28:09;31.69;29.55;36.31;;
69620;Laerm;57654;51.434;5.984;2023-03-01T00:28:19;31.36;29.30;36.86;;
69620;Laerm;57654;51.434;5.984;2023-03-01T00:28:29;31.61;29.37;37.46;;
69620;Laerm;57654;51.434;5.984;2023-03-01T00:28:41;31.43;28.90;35.04;;
69620;Laerm;57654;51.434;5.984;2023-03-01T00:28:52;31.37;28.92;35.26;;
69620;Laerm;57654;51.434;5.984;2023-03-01T00:29:02;31.27;29.08;37.89;;
69620;Laerm;57654;51.434;5.984;2023-03-01T00:29:12;31.24;29.17;34.99;;
69620;Laerm;57654;51.434;5.984;2023-03-01T00:29:23;31.32;29.12;35.29;;
69620;Laerm;57654;51.434;5.984;2023-03-01T00:29:34;31.45;29.33;35.34;;
69620;Laerm;57654;51.434;5.984;2023-03-01T00:29:44;31.73;29.28;36.67;;
69620;Laerm;57654;51.434;5.984;2023-03-01T00:29:54;31.31;29.12;35.69;;
69620;Laerm;57654;51.434;5.984;2023-03-01T00:30:04;31.33;29.18;35.78;;
69620;Laerm;57654;51.434;5.984;2023-03-01T00:30:15;31.41;29.05;36.80;;
69620;Laerm;57654;51.434;5.984;2023-03-01T00:30:25;31.25;29.27;35.60;;
69620;Laerm;57654;51.434;5.984;2023-03-01T00:30:36;31.43;28.97;36.07;;
69620;Laerm;57654;51.434;5.984;2023-03-01T00:30:46;31.26;28.84;36.27;;
69620;Laerm;57654;51.434;5.984;2023-03-01T00:31:01;31.26;29.08;37.83;;
69620;Laerm;57654;51.434;5.984;2023-03-01T00:31:13;31.44;29.05;37.63;;
69620;Laerm;57654;51.434;5.984;2023-03-01T00:31:25;31.19;28.90;36.77;;
69620;Laerm;57654;51.434;5.984;2023-03-01T00:31:35;31.22;29.06;37.08;;
69620;Laerm;57654;51.434;5.984;2023-03-01T00:31:46;31.13;28.59;36.44;;
69620;Laerm;57654;51.434;5.984;2023-03-01T00:31:56;31.19;28.76;34.79;;
69620;Laerm;57654;51.434;5.984;2023-03-01T00:32:06;31.18;29.14;35.15;;
69620;Laerm;57654;51.434;5.984;2023-03-01T00:32:16;31.39;29.21;38.11;;
69620;Laerm;57654;51.434;5.984;2023-03-01T00:32:26;31.30;29.28;35.32;;
69620;Laerm;57654;51.434;5.984;2023-03-01T00:32:37;31.47;28.78;36.04;;
69620;Laerm;57654;51.434;5.984;2023-03-01T00:32:47;31.43;28.96;36.17;;
69620;Laerm;57654;51.434;5.984;2023-03-01T00:32:57;31.22;29.02;36.89;;
69620;Laerm;57654;51.434;5.984;2023-03-01T00:33:07;31.09;28.67;35.34;;
69620;Laerm;57654;51.434;5.984;2023-03-01T00:33:17;31.56;28.69;38.42;;
69620;Laerm;57654;51.434;5.984;2023-03-01T00:33:28;31.32;29.06;35.91;;
69620;Laerm;57654;51.434;5.984;2023-03-01T00:33:38;31.32;28.98;36.99;;
69620;Laerm;57654;51.434;5.984;2023-03-01T00:33:51;31.29;28.77;37.14;;
69620;Laerm;57654;51.434;5.984;2023-03-01T00:34:02;31.15;29.11;35.18;;
69620;Laerm;57654;51.434;5.984;2023-03-01T00:34:13;31.31;29.00;37.13;;
69620;Laerm;57654;51.434;5.984;2023-03-01T00:34:23;31.04;28.93;34.00;;
69620;Laerm;57654;51.434;5.984;2023-03-01T00:34:34;31.09;28.96;33.80;;
69620;Laerm;57654;51.434;5.984;2023-03-01T00:34:44;31.31;29.29;35.88;;
69620;Laerm;57654;51.434;5.984;2023-03-01T00:35:04;31.41;28.66;38.05;;
69620;Laerm;57654;51.434;5.984;2023-03-01T00:35:15;31.20;28.90;36.41;;
69620;Laerm;57654;51.434;5.984;2023-03-01T00:35:25;31.18;29.12;36.30;;
69620;Laerm;57654;51.434;5.984;2023-03-01T00:35:36;31.21;29.05;34.37;;
69620;Laerm;57654;51.434;5.984;2023-03-01T00:35:46;31.29;29.23;40.54;;
69620;Laerm;57654;51.434;5.984;2023-03-01T00:36:00;31.00;29.02;35.84;;
69620;Laerm;57654;51.434;5.984;2023-03-01T00:36:10;31.13;29.11;36.05;;
69620;Laerm;57654;51.434;5.984;2023-03-01T00:36:21;31.23;29.13;35.44;;
69620;Laerm;57654;51.434;5.984;2023-03-01T00:36:32;31.23;28.99;35.30;;
69620;Laerm;57654;51.434;5.984;2023-03-01T00:36:43;31.03;28.98;36.36;;
69620;Laerm;57654;51.434;5.984;2023-03-01T00:36:53;31.11;28.57;36.10;;
69620;Laerm;57654;51.434;5.984;2023-03-01T00:37:03;31.46;29.25;36.21;;
69620;Laerm;57654;51.434;5.984;2023-03-01T00:37:15;42.23;29.94;49.53;;
69620;Laerm;57654;51.434;5.984;2023-03-01T00:37:25;52.96;47.62;55.66;;
69620;Laerm;57654;51.434;5.984;2023-03-01T00:37:35;55.18;52.69;57.05;;
69620;Laerm;57654;51.434;5.984;2023-03-01T00:37:46;55.45;51.39;57.75;;
69620;Laerm;57654;51.434;5.984;2023-03-01T00:37:56;48.15;44.99;53.13;;
69620;Laerm;57654;51.434;5.984;2023-03-01T00:38:07;44.56;39.74;47.66;;
69620;Laerm;57654;51.434;5.984;2023-03-01T00:38:18;41.20;37.75;45.54;;
69620;Laerm;57654;51.434;5.984;2023-03-01T00:38:28;41.12;37.28;46.33;;
69620;Laerm;57654;51.434;5.984;2023-03-01T00:38:43;39.92;33.33;48.06;;
69620;Laerm;57654;51.434;5.984;2023-03-01T00:38:53;39.25;33.25;45.40;;
69620;Laerm;57654;51.434;5.984;2023-03-01T00:39:04;36.03;31.27;40.72;;
69620;Laerm;57654;51.434;5.984;2023-03-01T00:39:15;35.56;31.28;40.57;;
69620;Laerm;57654;51.434;5.984;2023-03-01T00:39:25;35.50;30.76;39.25;;
69620;Laerm;57654;51.434;5.984;2023-03-01T00:39:36;35.43;32.00;39.77;;
69620;Laerm;57654;51.434;5.984;2023-03-01T00:39:46;35.29;31.72;38.88;;
69620;Laerm;57654;51.434;5.984;2023-03-01T00:39:56;34.20;30.83;38.89;;
69620;Laerm;57654;51.434;5.984;2023-03-01T00:40:07;32.59;30.32;36.12;;
69620;Laerm;57654;51.434;5.984;2023-03-01T00:40:17;33.03;30.95;36.75;;
69620;Laerm;57654;51.434;5.984;2023-03-01T00:40:28;33.03;30.67;37.89;;
69620;Laerm;57654;51.434;5.984;2023-03-01T00:40:38;32.44;30.19;37.39;;
69620;Laerm;57654;51.434;5.984;2023-03-01T00:40:48;32.71;30.35;36.78;;
69620;Laerm;57654;51.434;5.984;2023-03-01T00:41:09;32.52;30.28;37.24;;
69620;Laerm;57654;51.434;5.984;2023-03-01T00:41:20;45.19;32.63;51.07;;
69620;Laerm;57654;51.434;5.984;2023-03-01T00:41:30;34.80;30.96;38.07;;
69620;Laerm;57654;51.434;5.984;2023-03-01T00:41:41;32.68;30.78;35.54;;
69620;Laerm;57654;51.434;5.984;2023-03-01T00:41:51;34.44;31.04;38.32;;
69620;Laerm;57654;51.434;5.984;2023-03-01T00:42:02;33.36;30.23;39.99;;
69620;Laerm;57654;51.434;5.984;2023-03-01T00:42:12;32.85;30.49;40.00;;
69620;Laerm;57654;51.434;5.984;2023-03-01T00:42:22;32.36;29.98;37.34;;
69620;Laerm;57654;51.434;5.984;2023-03-01T00:42:33;32.54;30.10;39.58;;
69620;Laerm;57654;51.434;5.984;2023-03-01T00:42:43;32.50;29.89;36.52;;
69620;Laerm;57654;51.434;5.984;2023-03-01T00:42:53;32.19;29.63;35.41;;
69620;Laerm;57654;51.434;5.984;2023-03-01T00:43:03;32.31;29.83;37.47;;
69620;Laerm;57654;51.434;5.984;2023-03-01T00:43:14;31.98;29.97;36.29;;
69620;Laerm;57654;51.434;5.984;2023-03-01T00:43:24;31.91;29.61;36.73;;
69620;Laerm;57654;51.434;5.984;2023-03-01T00:43:34;31.80;29.43;36.47;;
69620;Laerm;57654;51.434;5.984;2023-03-01T00:43:48;32.21;29.37;42.30;;
69620;Laerm;57654;51.434;5.984;2023-03-01T00:43:58;32.04;29.71;35.32;;
69620;Laerm;57654;51.434;5.984;2023-03-01T00:44:09;32.42;29.50;35.73;;
69620;Laerm;57654;51.434;5.984;2023-03-01T00:44:19;32.64;30.23;36.86;;
69620;Laerm;57654;51.434;5.984;2023-03-01T00:44:29;32.10;30.24;36.38;;
69620;Laerm;57654;51.434;5.984;2023-03-01T00:44:39;32.19;29.82;36.51;;
69620;Laerm;57654;51.434;5.984;2023-03-01T00:44:50;31.95;29.36;36.35;;
69620;Laerm;57654;51.434;5.984;2023-03-01T00:45:00;31.68;29.20;36.35;;
69620;Laerm;57654;51.434;5.984;2023-03-01T00:45:10;32.26;29.71;37.99;;
69620;Laerm;57654;51.434;5.984;2023-03-01T00:45:20;31.77;29.20;36.96;;
69620;Laerm;57654;51.434;5.984;2023-03-01T00:45:32;31.73;29.59;37.24;;
69620;Laerm;57654;51.434;5.984;2023-03-01T00:45:42;31.76;29.35;37.10;;
69620;Laerm;57654;51.434;5.984;2023-03-01T00:45:53;31.72;28.98;37.29;;
69620;Laerm;57654;51.434;5.984;2023-03-01T00:46:03;31.47;29.22;35.80;;
69620;Laerm;57654;51.434;5.984;2023-03-01T00:46:15;31.43;29.36;37.46;;
69620;Laerm;57654;51.434;5.984;2023-03-01T00:46:26;31.12;28.88;35.60;;
69620;Laerm;57654;51.434;5.984;2023-03-01T00:46:36;31.44;29.00;37.80;;
69620;Laerm;57654;51.434;5.984;2023-03-01T00:46:47;31.35;29.33;35.81;;
69620;Laerm;57654;51.434;5.984;2023-03-01T00:46:57;31.46;29.45;35.68;;
69620;Laerm;57654;51.434;5.984;2023-03-01T00:47:07;31.60;29.28;36.88;;
69620;Laerm;57654;51.434;5.984;2023-03-01T00:47:18;31.65;29.25;37.06;;
69620;Laerm;57654;51.434;5.984;2023-03-01T00:47:28;31.51;29.48;35.26;;
69620;Laerm;57654;51.434;5.984;2023-03-01T00:47:39;31.43;29.14;35.49;;
69620;Laerm;57654;51.434;5.984;2023-03-01T00:47:49;31.70;29.07;36.08;;
69620;Laerm;57654;51.434;5.984;2023-03-01T00:48:00;31.57;28.90;39.03;;
69620;Laerm;57654;51.434;5.984;2023-03-01T00:48:10;31.17;28.72;34.97;;
69620;Laerm;57654;51.434;5.984;2023-03-01T00:48:20;31.53;29.10;38.98;;
69620;Laerm;57654;51.434;5.984;2023-03-01T00:48:30;31.35;29.40;37.03;;
69620;Laerm;57654;51.434;5.984;2023-03-01T00:48:41;31.59;29.24;36.20;;
69620;Laerm;57654;51.434;5.984;2023-03-01T00:48:51;31.84;29.41;39.43;;
69620;Laerm;57654;51.434;5.984;2023-03-01T00:49:01;31.45;29.47;34.96;;
69620;Laerm;57654;51.434;5.984;2023-03-01T00:49:12;31.34;29.42;34.32;;
69620;Laerm;57654;51.434;5.984;2023-03-01T00:49:22;31.45;29.43;35.55;;
69620;Laerm;57654;51.434;5.984;2023-03-01T00:49:35;31.73;29.36;38.12;;
69620;Laerm;57654;51.434;5.984;2023-03-01T00:49:45;31.38;29.22;36.05;;
69620;Laerm;57654;51.434;5.984;2023-03-01T00:49:55;31.79;29.08;38.91;;
69620;Laerm;57654;51.434;5.984;2023-03-01T00:50:06;31.48;28.98;37.74;;
69620;Laerm;57654;51.434;5.984;2023-03-01T00:50:16;31.61;29.12;35.02;;
69620;Laerm;57654;51.434;5.984;2023-03-01T00:50:26;32.19;29.48;36.81;;
69620;Laerm;57654;51.434;5.984;2023-03-01T00:50:36;31.58;29.30;36.17;;
69620;Laerm;57654;51.434;5.984;2023-03-01T00:50:47;31.31;28.79;34.69;;
69620;Laerm;57654;51.434;5.984;2023-03-01T00:50:57;31.32;29.38;36.73;;
69620;Laerm;57654;51.434;5.984;2023-03-01T00:51:08;31.34;29.28;38.20;;
69620;Laerm;57654;51.434;5.984;2023-03-01T00:51:23;31.38;28.99;38.97;;
69620;Laerm;57654;51.434;5.984;2023-03-01T00:51:33;31.23;29.25;34.72;;
69620;Laerm;57654;51.434;5.984;2023-03-01T00:51:44;31.27;29.22;34.86;;
69620;Laerm;57654;51.434;5.984;2023-03-01T00:51:54;31.41;29.29;37.37;;
69620;Laerm;57654;51.434;5.984;2023-03-01T00:52:04;31.57;29.16;40.49;;
69620;Laerm;57654;51.434;5.984;2023-03-01T00:52:14;31.39;29.31;35.31;;
69620;Laerm;57654;51.434;5.984;2023-03-01T00:52:24;31.37;29.21;35.68;;
69620;Laerm;57654;51.434;5.984;2023-03-01T00:52:35;31.21;29.05;37.25;;
69620;Laerm;57654;51.434;5.984;2023-03-01T00:52:45;31.17;29.19;36.17;;
69620;Laerm;57654;51.434;5.984;2023-03-01T00:52:55;31.46;29.34;35.37;;
69620;Laerm;57654;51.434;5.984;2023-03-01T00:53:06;31.74;29.46;37.57;;
69620;Laerm;57654;51.434;5.984;2023-03-01T00:53:16;31.39;28.84;35.01;;
69620;Laerm;57654;51.434;5.984;2023-03-01T00:53:26;31.41;29.40;36.81;;
69620;Laerm;57654;51.434;5.984;2023-03-01T00:53:36;31.59;29.28;37.56;;
69620;Laerm;57654;51.434;5.984;2023-03-01T00:53:49;31.71;29.67;35.56;;
69620;Laerm;57654;51.434;5.984;2023-03-01T00:54:00;32.22;29.34;36.72;;
69620;Laerm;57654;51.434;5.984;2023-03-01T00:54:11;31.45;29.13;37.95;;
69620;Laerm;57654;51.434;5.984;2023-03-01T00:54:21;31.25;29.08;35.41;;
69620;Laerm;57654;51.434;5.984;2023-03-01T00:54:31;31.17;29.24;35.63;;
69620;Laerm;57654;51.434;5.984;2023-03-01T00:54:41;31.26;29.12;35.98;;
69620;Laerm;57654;51.434;5.984;2023-03-01T00:54:52;31.12;29.00;36.30;;
69620;Laerm;57654;51.434;5.984;2023-03-01T00:55:03;31.22;29.06;34.62;;
69620;Laerm;57654;51.434;5.984;2023-03-01T00:55:13;31.07;28.91;35.10;;
69620;Laerm;57654;51.434;5.984;2023-03-01T00:55:24;31.32;29.21;36.18;;
69620;Laerm;57654;51.434;5.984;2023-03-01T00:55:35;31.28;28.48;36.41;;
69620;Laerm;57654;51.434;5.984;2023-03-01T00:55:46;31.42;28.96;36.42;;
69620;Laerm;57654;51.434;5.984;2023-03-01T00:55:56;31.30;29.00;34.48;;
69620;Laerm;57654;51.434;5.984;2023-03-01T00:56:07;31.29;29.07;39.87;;
69620;Laerm;57654;51.434;5.984;2023-03-01T00:56:18;31.46;29.41;36.86;;
69620;Laerm;57654;51.434;5.984;2023-03-01T00:56:29;31.41;28.68;35.97;;
69620;Laerm;57654;51.434;5.984;2023-03-01T00:56:39;31.67;29.03;37.31;;
69620;Laerm;57654;51.434;5.984;2023-03-01T00:56:50;31.58;29.28;35.94;;
69620;Laerm;57654;51.434;5.984;2023-03-01T00:57:00;31.49;29.04;35.48;;
69620;Laerm;57654;51.434;5.984;2023-03-01T00:57:10;31.41;29.33;35.33;;
69620;Laerm;57654;51.434;5.984;2023-03-01T00:57:20;31.42;28.56;35.47;;
69620;Laerm;57654;51.434;5.984;2023-03-01T00:57:31;31.34;28.89;35.29;;
69620;Laerm;57654;51.434;5.984;2023-03-01T00:57:41;31.23;29.02;36.03;;
69620;Laerm;57654;51.434;5.984;2023-03-01T00:57:51;31.50;29.17;36.16;;
69620;Laerm;57654;51.434;5.984;2023-03-01T00:58:01;31.34;29.39;35.50;;
69620;Laerm;57654;51.434;5.984;2023-03-01T00:58:12;31.54;29.28;34.84;;
69620;Laerm;57654;51.434;5.984;2023-03-01T00:58:22;31.47;29.24;37.75;;
69620;Laerm;57654;51.434;5.984;2023-03-01T00:58:32;31.39;28.86;36.53;;
69620;Laerm;57654;51.434;5.984;2023-03-01T00:58:43;31.46;28.94;38.47;;
69620;Laerm;57654;51.434;5.984;2023-03-01T00:58:53;31.88;29.69;35.94;;
69620;Laerm;57654;51.434;5.984;2023-03-01T00:59:03;31.67;29.35;39.30;;
69620;Laerm;57654;51.434;5.984;2023-03-01T00:59:14;31.32;29.17;35.87;;
69620;Laerm;57654;51.434;5.984;2023-03-01T00:59:24;31.33;28.85;37.06;;
69620;Laerm;57654;51.434;5.984;2023-03-01T00:59:34;31.32;29.20;36.14;;
69620;Laerm;57654;51.434;5.984;2023-03-01T00:59:44;31.10;28.84;36.83;;
69620;Laerm;57654;51.434;5.984;2023-03-01T00:59:55;31.34;29.21;37.90;;
69620;Laerm;57654;51.434;5.984;2023-03-01T01:00:05;31.30;28.68;37.63;;